Terminal Aerodrome Forecast
Issued by NWS

Home | Current Version | Previous Version | Text Only | Print | Product List | Glossary On
Versions: 1 2 3 4 5 6 7 8 9 10 11 12 13
746
FTUS42 KTBW 281737
TAFLAL
TAF
KLAL 281737Z 2818/2918 VRB05KT P6SM VCTS BKN045CB BKN100
     FM290100 VRB03KT P6SM SCT090 BKN250
     FM291500 27005KT P6SM SCT040 SCT250=

USA.gov is the U.S. government's official web portal to all federal, state and local government web resources and services.